sensor_id;sensor_type;location;lat;lon;timestamp;pressure;altitude;pressure_sealevel;temperature;humidity
47873;BME280;73966;47.438;18.912;2023-11-18T00:01:42;99847.69;;;5.48;62.97
47873;BME280;73966;47.438;18.912;2023-11-18T00:04:11;99854.59;;;5.67;62.39
47873;BME280;73966;47.438;18.912;2023-11-18T00:06:46;99848.53;;;5.48;62.92
47873;BME280;73966;47.438;18.912;2023-11-18T00:09:16;99844.94;;;5.51;63.06
47873;BME280;73966;47.438;18.912;2023-11-18T00:11:45;99848.34;;;5.34;63.36
47873;BME280;73966;47.438;18.912;2023-11-18T00:14:15;99855.75;;;5.26;63.65
47873;BME280;73966;47.438;18.912;2023-11-18T00:16:48;99860.59;;;5.35;63.36
47873;BME280;73966;47.438;18.912;2023-11-18T00:19:17;99865.06;;;5.50;62.69
47873;BME280;73966;47.438;18.912;2023-11-18T00:21:48;99871.78;;;5.38;63.20
47873;BME280;73966;47.438;18.912;2023-11-18T00:24:17;99861.81;;;5.45;62.88
47873;BME280;73966;47.438;18.912;2023-11-18T00:26:46;99853.66;;;5.51;62.96
47873;BME280;73966;47.438;18.912;2023-11-18T00:29:15;99853.97;;;5.62;62.12
47873;BME280;73966;47.438;18.912;2023-11-18T00:31:44;99853.34;;;5.57;62.65
47873;BME280;73966;47.438;18.912;2023-11-18T00:34:14;99866.94;;;5.48;62.96
47873;BME280;73966;47.438;18.912;2023-11-18T00:36:43;99859.53;;;5.56;62.82
47873;BME280;73966;47.438;18.912;2023-11-18T00:39:14;99855.81;;;5.43;63.18
47873;BME280;73966;47.438;18.912;2023-11-18T00:41:43;99859.50;;;5.39;63.13
47873;BME280;73966;47.438;18.912;2023-11-18T00:44:15;99862.31;;;5.17;63.73
47873;BME280;73966;47.438;18.912;2023-11-18T00:46:44;99857.47;;;5.27;63.60
47873;BME280;73966;47.438;18.912;2023-11-18T00:49:14;99854.56;;;5.14;63.84
47873;BME280;73966;47.438;18.912;2023-11-18T00:51:43;99859.56;;;5.01;63.98
47873;BME280;73966;47.438;18.912;2023-11-18T00:54:14;99860.03;;;4.90;64.57
47873;BME280;73966;47.438;18.912;2023-11-18T00:56:43;99857.63;;;4.86;64.50
47873;BME280;73966;47.438;18.912;2023-11-18T00:59:12;99856.87;;;4.84;64.59
47873;BME280;73966;47.438;18.912;2023-11-18T01:01:41;99865.25;;;4.92;64.30
47873;BME280;73966;47.438;18.912;2023-11-18T01:04:13;99858.31;;;4.91;64.53
47873;BME280;73966;47.438;18.912;2023-11-18T01:06:42;99861.41;;;4.99;64.17
47873;BME280;73966;47.438;18.912;2023-11-18T01:09:11;99867.00;;;4.73;64.55
47873;BME280;73966;47.438;18.912;2023-11-18T01:11:42;99877.09;;;4.82;64.41
47873;BME280;73966;47.438;18.912;2023-11-18T01:14:31;99876.59;;;4.92;63.96
47873;BME280;73966;47.438;18.912;2023-11-18T01:17:00;99883.53;;;4.93;64.04
47873;BME280;73966;47.438;18.912;2023-11-18T01:19:29;99873.84;;;4.96;63.80
47873;BME280;73966;47.438;18.912;2023-11-18T01:21:59;99878.44;;;4.90;63.74
47873;BME280;73966;47.438;18.912;2023-11-18T01:24:33;99879.56;;;4.85;63.83
47873;BME280;73966;47.438;18.912;2023-11-18T01:27:05;99883.50;;;4.95;63.62
47873;BME280;73966;47.438;18.912;2023-11-18T01:29:35;99884.56;;;4.91;63.48
47873;BME280;73966;47.438;18.912;2023-11-18T01:32:05;99893.06;;;4.96;63.28
47873;BME280;73966;47.438;18.912;2023-11-18T01:34:37;99892.75;;;5.02;62.96
47873;BME280;73966;47.438;18.912;2023-11-18T01:37:08;99881.94;;;4.91;63.53
47873;BME280;73966;47.438;18.912;2023-11-18T01:39:37;99881.00;;;4.92;63.35
47873;BME280;73966;47.438;18.912;2023-11-18T01:42:11;99879.97;;;4.94;63.33
47873;BME280;73966;47.438;18.912;2023-11-18T01:44:41;99875.03;;;4.88;63.31
47873;BME280;73966;47.438;18.912;2023-11-18T01:47:10;99880.78;;;4.78;63.63
47873;BME280;73966;47.438;18.912;2023-11-18T01:49:41;99886.87;;;4.78;63.32
47873;BME280;73966;47.438;18.912;2023-11-18T01:52:11;99877.56;;;4.90;63.22
47873;BME280;73966;47.438;18.912;2023-11-18T01:54:41;99881.69;;;4.77;63.62
47873;BME280;73966;47.438;18.912;2023-11-18T01:57:15;99878.87;;;5.00;63.01
47873;BME280;73966;47.438;18.912;2023-11-18T01:59:45;99886.31;;;4.90;63.36
47873;BME280;73966;47.438;18.912;2023-11-18T02:02:14;99885.25;;;4.94;63.24
47873;BME280;73966;47.438;18.912;2023-11-18T02:04:44;99908.44;;;4.85;63.24
47873;BME280;73966;47.438;18.912;2023-11-18T02:07:13;99901.16;;;4.91;63.20
47873;BME280;73966;47.438;18.912;2023-11-18T02:09:44;99896.16;;;4.85;63.46
47873;BME280;73966;47.438;18.912;2023-11-18T02:12:22;99910.44;;;4.99;63.07
47873;BME280;73966;47.438;18.912;2023-11-18T02:14:54;99915.75;;;4.78;63.57
47873;BME280;73966;47.438;18.912;2023-11-18T02:17:25;99907.88;;;4.97;63.33
47873;BME280;73966;47.438;18.912;2023-11-18T02:19:57;99908.31;;;4.88;63.70
47873;BME280;73966;47.438;18.912;2023-11-18T02:22:26;99903.78;;;4.91;63.42
47873;BME280;73966;47.438;18.912;2023-11-18T02:24:55;99900.84;;;4.98;63.40
47873;BME280;73966;47.438;18.912;2023-11-18T02:27:27;99904.91;;;5.05;63.05
47873;BME280;73966;47.438;18.912;2023-11-18T02:29:57;99903.75;;;4.73;64.24
47873;BME280;73966;47.438;18.912;2023-11-18T02:32:30;99905.00;;;5.03;63.39
47873;BME280;73966;47.438;18.912;2023-11-18T02:35:09;99909.94;;;4.72;63.96
47873;BME280;73966;47.438;18.912;2023-11-18T02:37:40;99920.59;;;4.87;63.72
47873;BME280;73966;47.438;18.912;2023-11-18T02:40:14;99919.53;;;4.91;63.93
47873;BME280;73966;47.438;18.912;2023-11-18T02:42:48;99915.50;;;5.03;63.58
47873;BME280;73966;47.438;18.912;2023-11-18T02:45:21;99912.56;;;4.90;64.18
47873;BME280;73966;47.438;18.912;2023-11-18T02:47:50;99906.56;;;5.07;63.66
47873;BME280;73966;47.438;18.912;2023-11-18T02:50:24;99910.88;;;5.08;63.76
47873;BME280;73966;47.438;18.912;2023-11-18T02:52:56;99920.44;;;4.90;64.34
47873;BME280;73966;47.438;18.912;2023-11-18T02:55:25;99917.25;;;5.03;64.30
47873;BME280;73966;47.438;18.912;2023-11-18T02:57:55;99924.19;;;4.85;64.95
47873;BME280;73966;47.438;18.912;2023-11-18T03:00:25;99922.16;;;4.91;64.95
47873;BME280;73966;47.438;18.912;2023-11-18T03:02:59;99928.91;;;4.97;64.55
47873;BME280;73966;47.438;18.912;2023-11-18T03:05:28;99927.19;;;4.96;64.84
47873;BME280;73966;47.438;18.912;2023-11-18T03:08:02;99939.13;;;5.03;64.61
47873;BME280;73966;47.438;18.912;2023-11-18T03:10:34;99951.97;;;5.28;63.96
47873;BME280;73966;47.438;18.912;2023-11-18T03:13:04;99941.59;;;4.87;65.46
47873;BME280;73966;47.438;18.912;2023-11-18T03:15:34;99944.09;;;5.09;64.70
47873;BME280;73966;47.438;18.912;2023-11-18T03:18:04;99956.84;;;4.98;65.20
47873;BME280;73966;47.438;18.912;2023-11-18T03:20:33;99947.91;;;5.02;64.94
47873;BME280;73966;47.438;18.912;2023-11-18T03:23:03;99961.03;;;5.02;65.12
47873;BME280;73966;47.438;18.912;2023-11-18T03:25:35;99951.19;;;5.07;65.23
47873;BME280;73966;47.438;18.912;2023-11-18T03:28:07;99947.34;;;5.14;64.86
47873;BME280;73966;47.438;18.912;2023-11-18T03:30:36;99944.19;;;5.27;64.40
47873;BME280;73966;47.438;18.912;2023-11-18T03:33:08;99939.53;;;5.32;64.03
47873;BME280;73966;47.438;18.912;2023-11-18T03:35:39;99948.28;;;5.13;64.74
47873;BME280;73966;47.438;18.912;2023-11-18T03:38:09;99958.16;;;5.08;64.91
47873;BME280;73966;47.438;18.912;2023-11-18T03:40:37;99940.75;;;5.25;64.60
47873;BME280;73966;47.438;18.912;2023-11-18T03:43:08;99960.19;;;5.02;65.25
47873;BME280;73966;47.438;18.912;2023-11-18T03:45:41;99958.56;;;5.18;64.97
47873;BME280;73966;47.438;18.912;2023-11-18T03:48:10;99974.34;;;4.99;65.50
47873;BME280;73966;47.438;18.912;2023-11-18T03:50:47;99969.97;;;4.98;65.43
47873;BME280;73966;47.438;18.912;2023-11-18T03:53:20;99970.44;;;5.27;64.71
47873;BME280;73966;47.438;18.912;2023-11-18T03:55:50;99967.94;;;5.24;64.83
47873;BME280;73966;47.438;18.912;2023-11-18T03:58:21;99977.78;;;5.18;64.92
47873;BME280;73966;47.438;18.912;2023-11-18T04:00:54;99976.91;;;5.20;64.71
47873;BME280;73966;47.438;18.912;2023-11-18T04:03:25;99983.41;;;5.30;64.38
47873;BME280;73966;47.438;18.912;2023-11-18T04:05:54;99988.19;;;5.40;63.94
47873;BME280;73966;47.438;18.912;2023-11-18T04:08:23;99980.50;;;5.17;64.67
47873;BME280;73966;47.438;18.912;2023-11-18T04:10:55;99985.47;;;5.42;63.85
47873;BME280;73966;47.438;18.912;2023-11-18T04:13:26;99992.16;;;5.49;63.58
47873;BME280;73966;47.438;18.912;2023-11-18T04:15:55;99999.41;;;5.25;64.30
47873;BME280;73966;47.438;18.912;2023-11-18T04:18:24;100002.59;;;5.32;64.03
47873;BME280;73966;47.438;18.912;2023-11-18T04:20:55;99989.34;;;5.35;64.04
47873;BME280;73966;47.438;18.912;2023-11-18T04:23:26;99993.78;;;5.14;64.67
47873;BME280;73966;47.438;18.912;2023-11-18T04:25:54;99999.97;;;5.32;64.29
47873;BME280;73966;47.438;18.912;2023-11-18T04:28:25;99998.47;;;5.26;64.28
47873;BME280;73966;47.438;18.912;2023-11-18T04:30:56;99993.56;;;5.18;64.61
47873;BME280;73966;47.438;18.912;2023-11-18T04:33:25;100003.00;;;5.41;63.89
47873;BME280;73966;47.438;18.912;2023-11-18T04:35:55;100011.13;;;5.37;63.98
47873;BME280;73966;47.438;18.912;2023-11-18T04:38:25;100011.25;;;5.34;64.04
47873;BME280;73966;47.438;18.912;2023-11-18T04:40:56;100010.41;;;5.33;64.05
47873;BME280;73966;47.438;18.912;2023-11-18T04:43:26;100014.50;;;5.58;63.40
47873;BME280;73966;47.438;18.912;2023-11-18T04:46:09;100014.09;;;5.48;63.59
47873;BME280;73966;47.438;18.912;2023-11-18T04:48:38;100021.50;;;5.40;63.71
47873;BME280;73966;47.438;18.912;2023-11-18T04:51:10;100029.28;;;5.41;63.95
47873;BME280;73966;47.438;18.912;2023-11-18T04:53:40;100020.56;;;5.60;63.35
47873;BME280;73966;47.438;18.912;2023-11-18T04:56:10;100016.81;;;5.28;64.06
47873;BME280;73966;47.438;18.912;2023-11-18T04:58:40;100017.09;;;5.40;63.47
47873;BME280;73966;47.438;18.912;2023-11-18T05:01:10;100018.16;;;5.36;63.74
47873;BME280;73966;47.438;18.912;2023-11-18T05:03:40;100008.34;;;5.40;63.61
47873;BME280;73966;47.438;18.912;2023-11-18T05:06:10;100018.97;;;5.18;64.16
47873;BME280;73966;47.438;18.912;2023-11-18T05:08:40;100028.75;;;5.35;63.85
47873;BME280;73966;47.438;18.912;2023-11-18T05:11:10;100027.44;;;5.25;64.05
47873;BME280;73966;47.438;18.912;2023-11-18T05:13:42;100030.50;;;5.34;63.82
47873;BME280;73966;47.438;18.912;2023-11-18T05:16:11;100022.91;;;5.28;63.68
47873;BME280;73966;47.438;18.912;2023-11-18T05:18:41;100033.97;;;5.16;63.79
47873;BME280;73966;47.438;18.912;2023-11-18T05:21:12;100039.00;;;5.21;63.72
47873;BME280;73966;47.438;18.912;2023-11-18T05:23:41;100056.00;;;5.32;63.70
47873;BME280;73966;47.438;18.912;2023-11-18T05:26:10;100063.25;;;5.27;63.52
47873;BME280;73966;47.438;18.912;2023-11-18T05:28:39;100048.13;;;5.32;63.57
47873;BME280;73966;47.438;18.912;2023-11-18T05:31:12;100052.44;;;5.33;63.54
47873;BME280;73966;47.438;18.912;2023-11-18T05:33:42;100057.97;;;5.46;63.06
47873;BME280;73966;47.438;18.912;2023-11-18T05:36:11;100046.97;;;5.38;63.26
47873;BME280;73966;47.438;18.912;2023-11-18T05:38:40;100054.50;;;5.46;63.09
47873;BME280;73966;47.438;18.912;2023-11-18T05:41:10;100053.44;;;5.31;63.50
47873;BME280;73966;47.438;18.912;2023-11-18T05:43:44;100062.22;;;5.11;64.01
47873;BME280;73966;47.438;18.912;2023-11-18T05:46:22;100066.25;;;5.18;64.08
47873;BME280;73966;47.438;18.912;2023-11-18T05:48:54;100057.69;;;5.33;63.43
47873;BME280;73966;47.438;18.912;2023-11-18T05:51:24;100053.41;;;5.51;62.88
47873;BME280;73966;47.438;18.912;2023-11-18T05:53:54;100063.31;;;5.45;62.91
47873;BME280;73966;47.438;18.912;2023-11-18T05:56:25;100065.88;;;5.46;62.91
47873;BME280;73966;47.438;18.912;2023-11-18T05:58:54;100073.78;;;5.07;63.53
47873;BME280;73966;47.438;18.912;2023-11-18T06:01:25;100080.44;;;5.14;63.31
47873;BME280;73966;47.438;18.912;2023-11-18T06:03:55;100073.81;;;5.26;63.58
47873;BME280;73966;47.438;18.912;2023-11-18T06:06:25;100079.47;;;5.16;63.64
47873;BME280;73966;47.438;18.912;2023-11-18T06:08:55;100088.13;;;5.18;63.57
47873;BME280;73966;47.438;18.912;2023-11-18T06:11:27;100091.72;;;5.36;62.94
47873;BME280;73966;47.438;18.912;2023-11-18T06:13:57;100088.94;;;5.00;64.06
47873;BME280;73966;47.438;18.912;2023-11-18T06:16:28;100082.88;;;5.18;63.53
47873;BME280;73966;47.438;18.912;2023-11-18T06:18:58;100090.09;;;5.13;63.62
47873;BME280;73966;47.438;18.912;2023-11-18T06:21:27;100093.19;;;5.23;63.12
47873;BME280;73966;47.438;18.912;2023-11-18T06:23:59;100075.00;;;5.18;63.30
47873;BME280;73966;47.438;18.912;2023-11-18T06:26:29;100081.28;;;5.14;63.35
47873;BME280;73966;47.438;18.912;2023-11-18T06:28:58;100075.84;;;4.99;63.97
47873;BME280;73966;47.438;18.912;2023-11-18T06:31:29;100090.72;;;4.79;64.22
47873;BME280;73966;47.438;18.912;2023-11-18T06:34:00;100097.31;;;5.29;63.23
47873;BME280;73966;47.438;18.912;2023-11-18T06:36:31;100091.87;;;5.52;62.46
47873;BME280;73966;47.438;18.912;2023-11-18T06:39:00;100098.59;;;5.97;60.71
47873;BME280;73966;47.438;18.912;2023-11-18T06:41:32;100102.16;;;5.96;60.63
47873;BME280;73966;47.438;18.912;2023-11-18T06:44:02;100113.88;;;6.08;60.55
47873;BME280;73966;47.438;18.912;2023-11-18T06:46:38;100113.78;;;6.09;60.21
47873;BME280;73966;47.438;18.912;2023-11-18T06:49:08;100103.81;;;6.35;59.62
47873;BME280;73966;47.438;18.912;2023-11-18T06:51:43;100108.34;;;6.50;58.96
47873;BME280;73966;47.438;18.912;2023-11-18T06:54:13;100116.13;;;6.52;58.84
47873;BME280;73966;47.438;18.912;2023-11-18T06:56:43;100118.66;;;6.36;59.01
47873;BME280;73966;47.438;18.912;2023-11-18T06:59:13;100124.84;;;6.54;58.71
47873;BME280;73966;47.438;18.912;2023-11-18T07:01:46;100122.00;;;6.39;59.10
47873;BME280;73966;47.438;18.912;2023-11-18T07:04:15;100103.47;;;6.24;59.37
47873;BME280;73966;47.438;18.912;2023-11-18T07:06:45;100122.88;;;6.21;59.65
47873;BME280;73966;47.438;18.912;2023-11-18T07:09:14;100124.41;;;6.08;59.86
47873;BME280;73966;47.438;18.912;2023-11-18T07:11:46;100127.16;;;6.05;60.33
47873;BME280;73966;47.438;18.912;2023-11-18T07:14:16;100136.25;;;6.16;59.58
47873;BME280;73966;47.438;18.912;2023-11-18T07:16:47;100142.53;;;6.14;59.76
47873;BME280;73966;47.438;18.912;2023-11-18T07:19:16;100137.72;;;6.41;59.35
47873;BME280;73966;47.438;18.912;2023-11-18T07:21:50;100144.97;;;6.72;58.29
47873;BME280;73966;47.438;18.912;2023-11-18T07:24:19;100133.75;;;6.86;57.88
47873;BME280;73966;47.438;18.912;2023-11-18T07:26:49;100144.91;;;6.91;57.58
47873;BME280;73966;47.438;18.912;2023-11-18T07:29:19;100141.97;;;7.14;57.12
47873;BME280;73966;47.438;18.912;2023-11-18T07:31:52;100127.66;;;7.36;56.56
47873;BME280;73966;47.438;18.912;2023-11-18T07:34:27;100135.91;;;7.63;55.52
47873;BME280;73966;47.438;18.912;2023-11-18T07:36:56;100134.59;;;8.03;54.60
47873;BME280;73966;47.438;18.912;2023-11-18T07:39:25;100121.75;;;8.29;53.48
47873;BME280;73966;47.438;18.912;2023-11-18T07:42:12;100117.75;;;8.53;52.81
47873;BME280;73966;47.438;18.912;2023-11-18T07:44:41;100131.56;;;8.89;51.88
47873;BME280;73966;47.438;18.912;2023-11-18T07:47:11;100129.28;;;9.27;50.84
47873;BME280;73966;47.438;18.912;2023-11-18T07:49:40;100128.94;;;9.47;50.10
47873;BME280;73966;47.438;18.912;2023-11-18T07:52:09;100130.44;;;9.94;48.92
47873;BME280;73966;47.438;18.912;2023-11-18T07:54:38;100118.37;;;10.31;47.83
47873;BME280;73966;47.438;18.912;2023-11-18T07:57:08;100125.81;;;10.39;47.28
47873;BME280;73966;47.438;18.912;2023-11-18T07:59:38;100146.19;;;10.78;46.97
47873;BME280;73966;47.438;18.912;2023-11-18T08:02:08;100146.34;;;10.90;46.03
47873;BME280;73966;47.438;18.912;2023-11-18T08:04:43;100150.66;;;11.43;45.20
47873;BME280;73966;47.438;18.912;2023-11-18T08:07:13;100149.44;;;12.11;43.86
47873;BME280;73966;47.438;18.912;2023-11-18T08:09:42;100153.44;;;11.93;43.79
47873;BME280;73966;47.438;18.912;2023-11-18T08:12:10;100144.50;;;12.30;42.83
47873;BME280;73966;47.438;18.912;2023-11-18T08:14:40;100151.31;;;11.85;43.17
47873;BME280;73966;47.438;18.912;2023-11-18T08:17:09;100154.09;;;10.39;46.14
47873;BME280;73966;47.438;18.912;2023-11-18T08:19:40;100142.28;;;10.57;46.37
47873;BME280;73966;47.438;18.912;2023-11-18T08:22:11;100142.25;;;10.71;46.30
47873;BME280;73966;47.438;18.912;2023-11-18T08:24:41;100142.91;;;10.75;45.90
47873;BME280;73966;47.438;18.912;2023-11-18T08:27:12;100145.34;;;10.78;45.69
47873;BME280;73966;47.438;18.912;2023-11-18T08:29:41;100149.88;;;11.16;44.90
47873;BME280;73966;47.438;18.912;2023-11-18T08:32:10;100159.44;;;11.18;44.96
47873;BME280;73966;47.438;18.912;2023-11-18T08:34:40;100150.84;;;11.40;44.36
47873;BME280;73966;47.438;18.912;2023-11-18T08:37:09;100147.69;;;11.86;43.31
47873;BME280;73966;47.438;18.912;2023-11-18T08:39:39;100136.84;;;11.64;44.07
47873;BME280;73966;47.438;18.912;2023-11-18T08:42:08;100139.72;;;12.36;45.04
47873;BME280;73966;47.438;18.912;2023-11-18T08:44:38;100138.56;;;12.99;42.40
47873;BME280;73966;47.438;18.912;2023-11-18T08:47:07;100138.28;;;12.55;42.41
47873;BME280;73966;47.438;18.912;2023-11-18T08:49:37;100129.38;;;12.44;41.78
47873;BME280;73966;47.438;18.912;2023-11-18T08:52:08;100137.34;;;12.20;42.28
47873;BME280;73966;47.438;18.912;2023-11-18T08:54:42;100147.91;;;11.83;43.30
47873;BME280;73966;47.438;18.912;2023-11-18T08:57:31;100137.28;;;11.83;43.18
47873;BME280;73966;47.438;18.912;2023-11-18T09:00:16;100146.41;;;11.79;43.76
47873;BME280;73966;47.438;18.912;2023-11-18T09:03:07;100139.75;;;11.61;43.40
47873;BME280;73966;47.438;18.912;2023-11-18T09:05:37;100145.47;;;11.29;44.67
47873;BME280;73966;47.438;18.912;2023-11-18T09:08:05;100145.47;;;11.29;45.00
47873;BME280;73966;47.438;18.912;2023-11-18T09:10:36;100148.84;;;11.18;44.99
47873;BME280;73966;47.438;18.912;2023-11-18T09:13:06;100134.84;;;11.29;44.76
47873;BME280;73966;47.438;18.912;2023-11-18T09:15:36;100161.44;;;10.75;45.38
47873;BME280;73966;47.438;18.912;2023-11-18T09:18:05;100145.78;;;10.84;45.92
47873;BME280;73966;47.438;18.912;2023-11-18T09:20:37;100142.69;;;11.18;44.92
47873;BME280;73966;47.438;18.912;2023-11-18T09:23:07;100122.75;;;11.25;44.46
47873;BME280;73966;47.438;18.912;2023-11-18T09:25:38;100129.63;;;11.15;44.82
47873;BME280;73966;47.438;18.912;2023-11-18T09:28:09;100146.50;;;11.39;44.93
47873;BME280;73966;47.438;18.912;2023-11-18T09:30:43;100143.78;;;11.53;44.42
47873;BME280;73966;47.438;18.912;2023-11-18T09:33:18;100148.75;;;11.71;43.54
47873;BME280;73966;47.438;18.912;2023-11-18T09:35:54;100155.53;;;11.88;43.29
47873;BME280;73966;47.438;18.912;2023-11-18T09:38:27;100141.97;;;11.92;43.31
47873;BME280;73966;47.438;18.912;2023-11-18T09:40:59;100153.44;;;11.93;43.12
47873;BME280;73966;47.438;18.912;2023-11-18T09:43:31;100151.53;;;11.56;43.87
47873;BME280;73966;47.438;18.912;2023-11-18T09:46:08;100167.22;;;11.34;44.87
47873;BME280;73966;47.438;18.912;2023-11-18T09:48:43;100171.56;;;11.73;44.03
47873;BME280;73966;47.438;18.912;2023-11-18T09:51:19;100177.19;;;11.56;43.75
47873;BME280;73966;47.438;18.912;2023-11-18T09:53:51;100171.84;;;11.18;44.49
47873;BME280;73966;47.438;18.912;2023-11-18T09:56:30;100162.87;;;11.33;44.97
47873;BME280;73966;47.438;18.912;2023-11-18T09:59:11;100158.16;;;11.11;44.88
47873;BME280;73966;47.438;18.912;2023-11-18T10:01:48;100171.84;;;11.18;44.53
47873;BME280;73966;47.438;18.912;2023-11-18T10:04:22;100169.09;;;11.32;44.70
47873;BME280;73966;47.438;18.912;2023-11-18T10:07:01;100166.88;;;11.39;44.09
47873;BME280;73966;47.438;18.912;2023-11-18T10:09:31;100151.38;;;11.20;43.71
47873;BME280;73966;47.438;18.912;2023-11-18T10:12:07;100155.75;;;11.59;43.87
47873;BME280;73966;47.438;18.912;2023-11-18T10:14:37;100160.75;;;11.51;43.23
47873;BME280;73966;47.438;18.912;2023-11-18T10:17:11;100153.53;;;11.66;42.45
47873;BME280;73966;47.438;18.912;2023-11-18T10:19:52;100153.31;;;11.43;43.42
47873;BME280;73966;47.438;18.912;2023-11-18T10:22:24;100149.94;;;11.41;43.28
47873;BME280;73966;47.438;18.912;2023-11-18T10:24:54;100145.31;;;11.05;43.88
47873;BME280;73966;47.438;18.912;2023-11-18T10:27:26;100141.91;;;10.63;44.67
47873;BME280;73966;47.438;18.912;2023-11-18T10:29:56;100130.91;;;10.69;44.37
47873;BME280;73966;47.438;18.912;2023-11-18T10:32:26;100130.31;;;10.78;44.68
47873;BME280;73966;47.438;18.912;2023-11-18T10:34:57;100138.97;;;10.80;44.85
47873;BME280;73966;47.438;18.912;2023-11-18T10:37:27;100133.97;;;11.03;44.25
47873;BME280;73966;47.438;18.912;2023-11-18T10:40:04;100137.44;;;10.91;44.25
47873;BME280;73966;47.438;18.912;2023-11-18T10:42:35;100144.91;;;10.71;44.71
47873;BME280;73966;47.438;18.912;2023-11-18T10:45:05;100141.19;;;11.01;44.35
47873;BME280;73966;47.438;18.912;2023-11-18T10:47:34;100146.06;;;11.20;43.79
47873;BME280;73966;47.438;18.912;2023-11-18T10:50:08;100142.50;;;11.46;43.91
47873;BME280;73966;47.438;18.912;2023-11-18T10:52:41;100153.00;;;11.73;43.34
47873;BME280;73966;47.438;18.912;2023-11-18T10:55:12;100155.41;;;11.64;43.07
47873;BME280;73966;47.438;18.912;2023-11-18T10:57:48;100146.53;;;11.65;43.12
47873;BME280;73966;47.438;18.912;2023-11-18T11:00:21;100128.13;;;10.98;44.14
47873;BME280;73966;47.438;18.912;2023-11-18T11:02:57;100140.03;;;11.05;44.06
47873;BME280;73966;47.438;18.912;2023-11-18T11:05:28;100143.09;;;11.12;44.36
47873;BME280;73966;47.438;18.912;2023-11-18T11:08:02;100143.41;;;11.07;43.94
47873;BME280;73966;47.438;18.912;2023-11-18T11:10:33;100155.81;;;11.06;44.29
47873;BME280;73966;47.438;18.912;2023-11-18T11:13:07;100146.38;;;10.63;45.01
47873;BME280;73966;47.438;18.912;2023-11-18T11:15:43;100170.56;;;11.11;44.15
47873;BME280;73966;47.438;18.912;2023-11-18T11:18:27;100155.75;;;11.59;43.92
47873;BME280;73966;47.438;18.912;2023-11-18T11:21:06;100164.22;;;11.26;43.99
47873;BME280;73966;47.438;18.912;2023-11-18T11:23:50;100183.31;;;11.31;44.65
47873;BME280;73966;47.438;18.912;2023-11-18T11:26:40;100178.31;;;11.14;44.05
47873;BME280;73966;47.438;18.912;2023-11-18T11:29:25;100195.94;;;10.88;44.21
47873;BME280;73966;47.438;18.912;2023-11-18T11:32:06;100189.13;;;11.11;44.81
47873;BME280;73966;47.438;18.912;2023-11-18T11:34:46;100193.66;;;11.08;45.36
47873;BME280;73966;47.438;18.912;2023-11-18T11:37:24;100211.19;;;10.57;45.66
47873;BME280;73966;47.438;18.912;2023-11-18T11:39:55;100223.22;;;10.48;45.12
47873;BME280;73966;47.438;18.912;2023-11-18T11:42:26;100225.25;;;10.02;46.68
47873;BME280;73966;47.438;18.912;2023-11-18T11:44:57;100230.81;;;9.97;46.95
47873;BME280;73966;47.438;18.912;2023-11-18T11:47:28;100232.31;;;9.73;47.76
47873;BME280;73966;47.438;18.912;2023-11-18T11:50:10;100231.62;;;9.55;48.11
47873;BME280;73966;47.438;18.912;2023-11-18T11:52:46;100251.91;;;9.40;48.83
47873;BME280;73966;47.438;18.912;2023-11-18T11:55:26;100242.09;;;9.26;48.56
47873;BME280;73966;47.438;18.912;2023-11-18T11:57:58;100236.00;;;9.10;49.42
47873;BME280;73966;47.438;18.912;2023-11-18T12:00:32;100239.47;;;9.26;49.30
47873;BME280;73966;47.438;18.912;2023-11-18T12:03:11;100234.28;;;9.25;48.69
47873;BME280;73966;47.438;18.912;2023-11-18T12:05:47;100249.09;;;8.97;48.50
47873;BME280;73966;47.438;18.912;2023-11-18T12:08:22;100244.59;;;8.83;48.94
47873;BME280;73966;47.438;18.912;2023-11-18T12:10:54;100249.03;;;8.51;49.68
47873;BME280;73966;47.438;18.912;2023-11-18T12:13:24;100247.41;;;8.80;49.78
47873;BME280;73966;47.438;18.912;2023-11-18T12:15:55;100247.56;;;8.93;49.58
47873;BME280;73966;47.438;18.912;2023-11-18T12:18:26;100251.22;;;8.75;49.96
47873;BME280;73966;47.438;18.912;2023-11-18T12:20:55;100255.50;;;8.46;50.32
47873;BME280;73966;47.438;18.912;2023-11-18T12:23:25;100264.37;;;8.60;50.40
47873;BME280;73966;47.438;18.912;2023-11-18T12:25:55;100265.81;;;8.66;50.68
47873;BME280;73966;47.438;18.912;2023-11-18T12:28:29;100265.81;;;8.66;50.10
47873;BME280;73966;47.438;18.912;2023-11-18T12:31:04;100271.50;;;8.43;49.84
47873;BME280;73966;47.438;18.912;2023-11-18T12:34:00;100266.16;;;8.44;49.89
47873;BME280;73966;47.438;18.912;2023-11-18T12:36:54;100258.31;;;8.43;50.15
47873;BME280;73966;47.438;18.912;2023-11-18T12:39:56;100255.34;;;8.49;49.95
47873;BME280;73966;47.438;18.912;2023-11-18T12:42:59;100246.47;;;8.66;49.69
47873;BME280;73966;47.438;18.912;2023-11-18T12:45:44;100260.19;;;8.56;49.98
47873;BME280;73966;47.438;18.912;2023-11-18T12:48:25;100271.72;;;8.55;49.76
47873;BME280;73966;47.438;18.912;2023-11-18T12:50:57;100275.94;;;8.42;50.24
47873;BME280;73966;47.438;18.912;2023-11-18T12:53:25;100271.94;;;8.67;50.16
47873;BME280;73966;47.438;18.912;2023-11-18T12:55:57;100269.12;;;8.54;50.42
47873;BME280;73966;47.438;18.912;2023-11-18T12:58:26;100271.88;;;8.68;50.05
47873;BME280;73966;47.438;18.912;2023-11-18T13:00:56;100274.00;;;8.77;50.60
47873;BME280;73966;47.438;18.912;2023-11-18T13:03:29;100281.25;;;8.74;50.00
47873;BME280;73966;47.438;18.912;2023-11-18T13:05:58;100272.19;;;8.46;50.92
47873;BME280;73966;47.438;18.912;2023-11-18T13:08:27;100280.63;;;8.37;50.29
47873;BME280;73966;47.438;18.912;2023-11-18T13:10:57;100274.25;;;8.57;49.96
47873;BME280;73966;47.438;18.912;2023-11-18T13:13:33;100276.62;;;8.77;50.20
47873;BME280;73966;47.438;18.912;2023-11-18T13:16:04;100275.94;;;8.90;49.32